sensor_id;sensor_type;location;lat;lon;timestamp;pressure;altitude;pressure_sealevel;temperature;humidity
65800;BME280;52544;48.116;11.660;2023-07-20T00:00:25;95399.66;;;22.56;89.08
65800;BME280;52544;48.116;11.660;2023-07-20T00:02:51;95398.19;;;22.60;100.00
65800;BME280;52544;48.116;11.660;2023-07-20T00:05:17;95407.53;;;22.58;100.00
65800;BME280;52544;48.116;11.660;2023-07-20T00:07:47;95401.94;;;22.53;98.95
65800;BME280;52544;48.116;11.660;2023-07-20T00:10:13;95394.47;;;22.48;98.34
65800;BME280;52544;48.116;11.660;2023-07-20T00:12:38;95400.69;;;22.42;90.99
65800;BME280;52544;48.116;11.660;2023-07-20T00:15:04;95399.03;;;22.41;99.22
65800;BME280;52544;48.116;11.660;2023-07-20T00:17:30;95399.88;;;22.35;94.06
65800;BME280;52544;48.116;11.660;2023-07-20T00:19:55;95392.81;;;22.34;95.81
65800;BME280;52544;48.116;11.660;2023-07-20T00:22:20;95396.97;;;22.30;93.54
65800;BME280;52544;48.116;11.660;2023-07-20T00:24:46;95396.56;;;22.26;100.00
65800;BME280;52544;48.116;11.660;2023-07-20T00:27:11;95399.06;;;22.28;100.00
65800;BME280;52544;48.116;11.660;2023-07-20T00:29:37;95397.81;;;22.24;100.00
65800;BME280;52544;48.116;11.660;2023-07-20T00:32:02;95399.03;;;22.21;100.00
65800;BME280;52544;48.116;11.660;2023-07-20T00:34:30;95396.16;;;22.23;100.00
65800;BME280;52544;48.116;11.660;2023-07-20T00:36:56;95409.44;;;22.17;100.00
65800;BME280;52544;48.116;11.660;2023-07-20T00:39:21;95413.56;;;22.13;100.00
65800;BME280;52544;48.116;11.660;2023-07-20T00:41:46;95414.59;;;22.12;100.00
65800;BME280;52544;48.116;11.660;2023-07-20T00:44:12;95413.94;;;22.04;97.85
65800;BME280;52544;48.116;11.660;2023-07-20T00:46:37;95418.09;;;22.06;100.00
65800;BME280;52544;48.116;11.660;2023-07-20T00:49:03;95419.75;;;22.07;100.00
65800;BME280;52544;48.116;11.660;2023-07-20T00:51:29;95414.75;;;22.04;100.00
65800;BME280;52544;48.116;11.660;2023-07-20T00:53:55;95413.94;;;22.04;100.00
65800;BME280;52544;48.116;11.660;2023-07-20T00:56:21;95410.22;;;21.98;100.00
65800;BME280;52544;48.116;11.660;2023-07-20T00:58:47;95412.91;;;21.98;100.00
65800;BME280;52544;48.116;11.660;2023-07-20T01:01:12;95415.59;;;21.98;100.00
65800;BME280;52544;48.116;11.660;2023-07-20T01:03:38;95411.25;;;22.04;100.00
65800;BME280;52544;48.116;11.660;2023-07-20T01:08:40;95424.28;;;22.00;100.00
65800;BME280;52544;48.116;11.660;2023-07-20T01:11:38;95423.03;;;21.96;100.00
65800;BME280;52544;48.116;11.660;2023-07-20T01:14:04;95419.53;;;21.95;100.00
65800;BME280;52544;48.116;11.660;2023-07-20T01:16:30;95414.94;;;21.96;100.00
65800;BME280;52544;48.116;11.660;2023-07-20T01:18:55;95408.13;;;21.93;100.00
65800;BME280;52544;48.116;11.660;2023-07-20T01:21:26;95406.47;;;21.92;100.00
65800;BME280;52544;48.116;11.660;2023-07-20T01:24:07;95408.75;;;21.89;100.00
65800;BME280;52544;48.116;11.660;2023-07-20T01:27:12;95400.25;;;21.92;100.00
65800;BME280;52544;48.116;11.660;2023-07-20T01:32:31;95415.56;;;21.91;100.00
65800;BME280;52544;48.116;11.660;2023-07-20T01:34:58;95405.22;;;21.88;100.00
65800;BME280;52544;48.116;11.660;2023-07-20T01:37:25;95414.53;;;21.86;100.00
65800;BME280;52544;48.116;11.660;2023-07-20T01:39:54;95410.19;;;21.85;100.00
65800;BME280;52544;48.116;11.660;2023-07-20T01:42:22;95415.59;;;21.85;100.00
65800;BME280;52544;48.116;11.660;2023-07-20T01:44:51;95414.34;;;21.81;100.00
65800;BME280;52544;48.116;11.660;2023-07-20T01:47:17;95414.94;;;21.83;100.00
65800;BME280;52544;48.116;11.660;2023-07-20T01:49:43;95412.06;;;21.84;100.00
65800;BME280;52544;48.116;11.660;2023-07-20T01:52:08;95415.97;;;21.82;100.00
65800;BME280;52544;48.116;11.660;2023-07-20T01:54:34;95417.63;;;21.83;100.00
65800;BME280;52544;48.116;11.660;2023-07-20T01:56:59;95413.06;;;21.83;100.00
65800;BME280;52544;48.116;11.660;2023-07-20T01:59:24;95418.91;;;21.80;100.00
65800;BME280;52544;48.116;11.660;2023-07-20T02:01:50;95412.88;;;21.78;100.00
65800;BME280;52544;48.116;11.660;2023-07-20T02:04:15;95423.22;;;21.75;100.00
65800;BME280;52544;48.116;11.660;2023-07-20T02:06:41;95415.13;;;21.75;100.00
65800;BME280;52544;48.116;11.660;2023-07-20T02:09:06;95415.13;;;21.75;100.00
65800;BME280;52544;48.116;11.660;2023-07-20T02:11:31;95428.81;;;21.73;100.00
65800;BME280;52544;48.116;11.660;2023-07-20T02:13:57;95423.63;;;21.71;100.00
65800;BME280;52544;48.116;11.660;2023-07-20T02:16:22;95413.88;;;21.70;100.00
65800;BME280;52544;48.116;11.660;2023-07-20T02:18:48;95423.44;;;21.66;100.00
65800;BME280;52544;48.116;11.660;2023-07-20T02:21:13;95416.34;;;21.65;100.00
65800;BME280;52544;48.116;11.660;2023-07-20T02:23:38;95420.91;;;21.65;100.00
65800;BME280;52544;48.116;11.660;2023-07-20T02:26:04;95425.88;;;21.61;100.00
65800;BME280;52544;48.116;11.660;2023-07-20T02:28:29;95418.22;;;21.58;100.00
65800;BME280;52544;48.116;11.660;2023-07-20T02:30:54;95409.09;;;21.53;100.00
65800;BME280;52544;48.116;11.660;2023-07-20T02:33:20;95409.28;;;21.51;100.00
65800;BME280;52544;48.116;11.660;2023-07-20T02:35:45;95443.22;;;21.39;100.00
65800;BME280;52544;48.116;11.660;2023-07-20T02:38:11;95434.09;;;21.40;100.00
65800;BME280;52544;48.116;11.660;2023-07-20T02:40:36;95415.47;;;21.38;100.00
65800;BME280;52544;48.116;11.660;2023-07-20T02:43:02;95423.31;;;21.40;100.00
65800;BME280;52544;48.116;11.660;2023-07-20T02:45:27;95419.19;;;21.37;100.00
65800;BME280;52544;48.116;11.660;2023-07-20T02:47:53;95418.38;;;21.37;100.00
65800;BME280;52544;48.116;11.660;2023-07-20T02:50:18;95416.69;;;21.36;100.00
65800;BME280;52544;48.116;11.660;2023-07-20T02:52:43;95423.31;;;21.33;100.00
65800;BME280;52544;48.116;11.660;2023-07-20T02:55:09;95429.06;;;21.30;100.00
65800;BME280;52544;48.116;11.660;2023-07-20T02:57:35;95424.91;;;21.28;100.00
65800;BME280;52544;48.116;11.660;2023-07-20T03:00:02;95437.09;;;21.23;100.00
65800;BME280;52544;48.116;11.660;2023-07-20T03:02:29;95450.56;;;21.23;100.00
65800;BME280;52544;48.116;11.660;2023-07-20T03:04:55;95466.69;;;21.17;100.00
65800;BME280;52544;48.116;11.660;2023-07-20T03:07:22;95471.19;;;21.10;100.00
65800;BME280;52544;48.116;11.660;2023-07-20T03:09:48;95457.06;;;21.01;100.00
65800;BME280;52544;48.116;11.660;2023-07-20T03:12:13;95450.44;;;20.97;100.00
65800;BME280;52544;48.116;11.660;2023-07-20T03:14:39;95461.31;;;20.82;100.00
65800;BME280;52544;48.116;11.660;2023-07-20T03:17:04;95464.34;;;20.72;100.00
65800;BME280;52544;48.116;11.660;2023-07-20T03:19:30;95464.25;;;20.59;100.00
65800;BME280;52544;48.116;11.660;2023-07-20T03:21:55;95470.53;;;20.45;100.00
65800;BME280;52544;48.116;11.660;2023-07-20T03:24:20;95468.59;;;20.39;100.00
65800;BME280;52544;48.116;11.660;2023-07-20T03:26:46;95468.94;;;20.29;100.00
65800;BME280;52544;48.116;11.660;2023-07-20T03:29:11;95471.84;;;20.28;100.00
65800;BME280;52544;48.116;11.660;2023-07-20T03:31:37;95471.78;;;20.21;100.00
65800;BME280;52544;48.116;11.660;2023-07-20T03:34:02;95484.13;;;20.15;100.00
65800;BME280;52544;48.116;11.660;2023-07-20T03:36:27;95501.41;;;20.06;100.00
65800;BME280;52544;48.116;11.660;2023-07-20T03:38:53;95501.78;;;20.03;100.00
65800;BME280;52544;48.116;11.660;2023-07-20T03:41:18;95486.44;;;19.97;100.00
65800;BME280;52544;48.116;11.660;2023-07-20T03:43:45;95492.56;;;19.91;100.00
65800;BME280;52544;48.116;11.660;2023-07-20T03:46:10;95492.94;;;19.88;100.00
65800;BME280;52544;48.116;11.660;2023-07-20T03:48:36;95491.22;;;19.80;100.00
65800;BME280;52544;48.116;11.660;2023-07-20T03:51:01;95483.34;;;19.79;100.00
65800;BME280;52544;48.116;11.660;2023-07-20T03:53:27;95487.06;;;19.78;100.00
65800;BME280;52544;48.116;11.660;2023-07-20T03:55:53;95484.50;;;19.69;100.00
65800;BME280;52544;48.116;11.660;2023-07-20T03:58:19;95485.97;;;19.57;100.00
65800;BME280;52544;48.116;11.660;2023-07-20T04:00:49;95493.03;;;19.58;100.00
65800;BME280;52544;48.116;11.660;2023-07-20T04:03:16;95495.41;;;19.53;100.00
65800;BME280;52544;48.116;11.660;2023-07-20T04:05:42;95494.97;;;19.49;100.00
65800;BME280;52544;48.116;11.660;2023-07-20T04:08:08;95503.56;;;19.45;100.00
65800;BME280;52544;48.116;11.660;2023-07-20T04:10:34;95507.03;;;19.39;100.00
65800;BME280;52544;48.116;11.660;2023-07-20T04:13:00;95501.13;;;19.29;100.00
65800;BME280;52544;48.116;11.660;2023-07-20T04:15:26;95504.25;;;19.32;100.00
65800;BME280;52544;48.116;11.660;2023-07-20T04:17:51;95505.47;;;19.30;100.00
65800;BME280;52544;48.116;11.660;2023-07-20T04:20:17;95496.84;;;19.34;100.00
65800;BME280;52544;48.116;11.660;2023-07-20T04:22:43;95493.16;;;19.35;100.00
65800;BME280;52544;48.116;11.660;2023-07-20T04:25:08;95495.19;;;19.33;100.00
65800;BME280;52544;48.116;11.660;2023-07-20T04:27:35;95502.41;;;19.33;100.00
65800;BME280;52544;48.116;11.660;2023-07-20T04:30:01;95495.81;;;19.35;100.00
65800;BME280;52544;48.116;11.660;2023-07-20T04:32:27;95496.03;;;19.34;100.00
65800;BME280;52544;48.116;11.660;2023-07-20T04:34:52;95505.47;;;19.30;100.00
65800;BME280;52544;48.116;11.660;2023-07-20T04:37:18;95503.81;;;19.29;100.00
65800;BME280;52544;48.116;11.660;2023-07-20T04:39:43;95505.00;;;19.26;100.00
65800;BME280;52544;48.116;11.660;2023-07-20T04:42:09;95500.47;;;19.27;100.00
65800;BME280;52544;48.116;11.660;2023-07-20T04:44:34;95509.91;;;19.22;100.00
65800;BME280;52544;48.116;11.660;2023-07-20T04:47:00;95507.69;;;19.26;100.00
65800;BME280;52544;48.116;11.660;2023-07-20T04:49:25;95509.16;;;19.29;100.00
65800;BME280;52544;48.116;11.660;2023-07-20T04:51:51;95514.16;;;19.32;100.00
65800;BME280;52544;48.116;11.660;2023-07-20T04:54:16;95508.78;;;19.32;100.00
65800;BME280;52544;48.116;11.660;2023-07-20T04:56:43;95517.94;;;19.37;100.00
65800;BME280;52544;48.116;11.660;2023-07-20T04:59:09;95515.44;;;19.36;100.00
65800;BME280;52544;48.116;11.660;2023-07-20T05:01:34;95512.28;;;19.47;100.00
65800;BME280;52544;48.116;11.660;2023-07-20T05:04:00;95510.06;;;19.51;100.00
65800;BME280;52544;48.116;11.660;2023-07-20T05:06:25;95516.97;;;19.60;100.00
65800;BME280;52544;48.116;11.660;2023-07-20T05:08:51;95522.44;;;19.66;100.00
65800;BME280;52544;48.116;11.660;2023-07-20T05:11:16;95528.09;;;19.71;100.00
65800;BME280;52544;48.116;11.660;2023-07-20T05:13:41;95524.75;;;19.69;100.00
65800;BME280;52544;48.116;11.660;2023-07-20T05:16:07;95527.06;;;19.72;100.00
65800;BME280;52544;48.116;11.660;2023-07-20T05:18:32;95521.34;;;19.76;100.00
65800;BME280;52544;48.116;11.660;2023-07-20T05:20:58;95525.69;;;19.77;100.00
65800;BME280;52544;48.116;11.660;2023-07-20T05:23:24;95523.25;;;19.82;100.00
65800;BME280;52544;48.116;11.660;2023-07-20T05:25:56;95513.16;;;19.84;100.00
65800;BME280;52544;48.116;11.660;2023-07-20T05:28:23;95531.56;;;19.87;100.00
65800;BME280;52544;48.116;11.660;2023-07-20T05:30:49;95531.75;;;19.85;100.00
65800;BME280;52544;48.116;11.660;2023-07-20T05:33:16;95523.00;;;19.77;100.00
65800;BME280;52544;48.116;11.660;2023-07-20T05:35:41;95522.06;;;19.69;100.00
65800;BME280;52544;48.116;11.660;2023-07-20T05:38:07;95525.31;;;19.65;100.00
65800;BME280;52544;48.116;11.660;2023-07-20T05:40:32;95517.06;;;19.66;100.00
65800;BME280;52544;48.116;11.660;2023-07-20T05:42:57;95527.06;;;19.72;100.00
65800;BME280;52544;48.116;11.660;2023-07-20T05:45:24;95533.91;;;19.75;100.00
65800;BME280;52544;48.116;11.660;2023-07-20T05:47:49;95527.78;;;19.81;100.00
65800;BME280;52544;48.116;11.660;2023-07-20T05:50:15;95535.47;;;19.84;100.00
65800;BME280;52544;48.116;11.660;2023-07-20T05:52:40;95530.09;;;19.84;100.00
65800;BME280;52544;48.116;11.660;2023-07-20T05:55:06;95534.25;;;19.87;100.00
65800;BME280;52544;48.116;11.660;2023-07-20T05:57:32;95528.50;;;19.90;100.00
65800;BME280;52544;48.116;11.660;2023-07-20T05:59:58;95529.41;;;19.97;100.00
65800;BME280;52544;48.116;11.660;2023-07-20T06:02:23;95526.78;;;20.04;100.00
65800;BME280;52544;48.116;11.660;2023-07-20T06:04:48;95536.13;;;20.08;100.00
65800;BME280;52544;48.116;11.660;2023-07-20T06:07:15;95539.25;;;20.11;100.00
65800;BME280;52544;48.116;11.660;2023-07-20T06:09:40;95537.72;;;20.02;100.00
65800;BME280;52544;48.116;11.660;2023-07-20T06:12:06;95535.78;;;19.96;100.00
65800;BME280;52544;48.116;11.660;2023-07-20T06:14:32;95546.72;;;19.94;100.00
65800;BME280;52544;48.116;11.660;2023-07-20T06:16:57;95535.63;;;19.97;100.00
65800;BME280;52544;48.116;11.660;2023-07-20T06:19:23;95535.78;;;19.96;100.00
65800;BME280;52544;48.116;11.660;2023-07-20T06:21:48;95539.69;;;19.93;100.00
65800;BME280;52544;48.116;11.660;2023-07-20T06:24:15;95531.06;;;19.98;100.00
65800;BME280;52544;48.116;11.660;2023-07-20T06:26:41;95537.72;;;20.02;100.00
65800;BME280;52544;48.116;11.660;2023-07-20T06:29:06;95538.75;;;20.01;100.00
65800;BME280;52544;48.116;11.660;2023-07-20T06:31:33;95531.44;;;19.95;100.00
65800;BME280;52544;48.116;11.660;2023-07-20T06:33:59;95540.16;;;19.97;100.00
65800;BME280;52544;48.116;11.660;2023-07-20T06:36:24;95545.22;;;20.07;100.00
65800;BME280;52544;48.116;11.660;2023-07-20T06:38:51;95539.38;;;20.03;100.00
65800;BME280;52544;48.116;11.660;2023-07-20T06:41:17;95534.00;;;20.03;100.00
65800;BME280;52544;48.116;11.660;2023-07-20T06:43:43;95538.19;;;20.06;100.00
65800;BME280;52544;48.116;11.660;2023-07-20T06:46:08;95525.38;;;20.08;100.00
65800;BME280;52544;48.116;11.660;2023-07-20T06:48:33;95538.56;;;20.03;100.00
65800;BME280;52544;48.116;11.660;2023-07-20T06:50:59;95540.66;;;20.07;100.00
65800;BME280;52544;48.116;11.660;2023-07-20T06:53:24;95541.94;;;20.11;100.00
65800;BME280;52544;48.116;11.660;2023-07-20T06:55:49;95538.69;;;20.16;100.00
65800;BME280;52544;48.116;11.660;2023-07-20T06:58:15;95530.44;;;20.17;100.00
65800;BME280;52544;48.116;11.660;2023-07-20T07:00:40;95538.50;;;20.17;100.00
65800;BME280;52544;48.116;11.660;2023-07-20T07:03:06;95543.34;;;20.29;100.00
65800;BME280;52544;48.116;11.660;2023-07-20T07:05:35;95541.00;;;20.40;100.00
65800;BME280;52544;48.116;11.660;2023-07-20T07:08:02;95541.03;;;20.47;100.00
65800;BME280;52544;48.116;11.660;2023-07-20T07:10:27;95536.84;;;20.59;100.00
65800;BME280;52544;48.116;11.660;2023-07-20T07:12:53;95540.03;;;20.69;100.00
65800;BME280;52544;48.116;11.660;2023-07-20T07:15:18;95538.03;;;20.78;100.00
65800;BME280;52544;48.116;11.660;2023-07-20T07:17:43;95547.19;;;20.84;100.00
65800;BME280;52544;48.116;11.660;2023-07-20T07:20:09;95546.41;;;20.90;100.00
65800;BME280;52544;48.116;11.660;2023-07-20T07:22:34;95540.63;;;20.93;100.00
65800;BME280;52544;48.116;11.660;2023-07-20T07:25:00;95537.41;;;21.04;100.00
65800;BME280;52544;48.116;11.660;2023-07-20T07:27:25;95537.41;;;21.11;100.00
65800;BME280;52544;48.116;11.660;2023-07-20T07:29:51;95534.16;;;21.15;100.00
65800;BME280;52544;48.116;11.660;2023-07-20T07:32:16;95540.78;;;21.19;100.00
65800;BME280;52544;48.116;11.660;2023-07-20T07:34:43;95547.84;;;21.20;100.00
65800;BME280;52544;48.116;11.660;2023-07-20T07:37:08;95549.94;;;21.25;97.06
65800;BME280;52544;48.116;11.660;2023-07-20T07:39:34;95549.13;;;21.25;96.43
65800;BME280;52544;48.116;11.660;2023-07-20T07:41:59;95548.69;;;21.28;97.20
65800;BME280;52544;48.116;11.660;2023-07-20T07:44:25;95552.44;;;21.27;91.66
65800;BME280;52544;48.116;11.660;2023-07-20T07:46:51;95556.47;;;21.37;100.00
65800;BME280;52544;48.116;11.660;2023-07-20T07:49:17;95549.22;;;21.38;92.46
65800;BME280;52544;48.116;11.660;2023-07-20T07:51:43;95540.91;;;21.33;95.32
65800;BME280;52544;48.116;11.660;2023-07-20T07:54:09;95549.22;;;21.38;100.00
65800;BME280;52544;48.116;11.660;2023-07-20T07:56:34;95548.22;;;21.45;97.03
65800;BME280;52544;48.116;11.660;2023-07-20T07:59:00;95538.34;;;21.59;100.00
65800;BME280;52544;48.116;11.660;2023-07-20T08:01:25;95546.25;;;21.67;100.00
65800;BME280;52544;48.116;11.660;2023-07-20T08:03:50;95552.47;;;21.75;100.00
65800;BME280;52544;48.116;11.660;2023-07-20T08:06:16;95541.75;;;21.81;100.00
65800;BME280;52544;48.116;11.660;2023-07-20T08:08:41;95547.34;;;21.80;77.54
65800;BME280;52544;48.116;11.660;2023-07-20T08:11:07;95546.28;;;21.74;96.62
65800;BME280;52544;48.116;11.660;2023-07-20T08:13:34;95545.00;;;21.70;89.58
65800;BME280;52544;48.116;11.660;2023-07-20T08:15:59;95554.34;;;21.67;97.47
65800;BME280;52544;48.116;11.660;2023-07-20T08:18:24;95553.06;;;21.63;94.94
65800;BME280;52544;48.116;11.660;2023-07-20T08:20:50;95551.66;;;21.67;100.00
65800;BME280;52544;48.116;11.660;2023-07-20T08:23:15;95556.44;;;21.72;100.00
65800;BME280;52544;48.116;11.660;2023-07-20T08:25:41;95559.72;;;21.74;97.28
65800;BME280;52544;48.116;11.660;2023-07-20T08:28:15;95550.44;;;21.77;93.24
65800;BME280;52544;48.116;11.660;2023-07-20T08:30:43;95553.09;;;21.70;80.06
65800;BME280;52544;48.116;11.660;2023-07-20T08:33:10;95555.19;;;21.75;80.24
65800;BME280;52544;48.116;11.660;2023-07-20T08:35:36;95547.34;;;21.80;90.54
65800;BME280;52544;48.116;11.660;2023-07-20T08:38:01;95551.09;;;21.85;95.50
65800;BME280;52544;48.116;11.660;2023-07-20T08:40:27;95557.31;;;21.86;100.00
65800;BME280;52544;48.116;11.660;2023-07-20T08:42:54;95548.19;;;21.87;94.62
65800;BME280;52544;48.116;11.660;2023-07-20T08:45:22;95544.06;;;21.91;100.00
65800;BME280;52544;48.116;11.660;2023-07-20T08:47:48;95545.72;;;21.92;87.67
65800;BME280;52544;48.116;11.660;2023-07-20T08:50:15;95544.28;;;21.96;90.23
65800;BME280;52544;48.116;11.660;2023-07-20T08:52:41;95547.00;;;22.03;93.55
65800;BME280;52544;48.116;11.660;2023-07-20T08:55:07;95537.25;;;22.08;93.04
65800;BME280;52544;48.116;11.660;2023-07-20T08:57:33;95531.47;;;22.11;100.00
65800;BME280;52544;48.116;11.660;2023-07-20T09:00:02;95541.25;;;22.12;89.49
65800;BME280;52544;48.116;11.660;2023-07-20T09:02:30;95539.41;;;22.19;100.00
65800;BME280;52544;48.116;11.660;2023-07-20T09:05:00;95544.41;;;22.23;82.62
65800;BME280;52544;48.116;11.660;2023-07-20T09:07:26;95548.97;;;22.22;87.07
65800;BME280;52544;48.116;11.660;2023-07-20T09:09:51;95544.59;;;22.28;85.66
65800;BME280;52544;48.116;11.660;2023-07-20T09:12:17;95542.53;;;22.30;87.85
65800;BME280;52544;48.116;11.660;2023-07-20T09:14:43;95537.78;;;22.32;88.94
65800;BME280;52544;48.116;11.660;2023-07-20T09:17:13;95540.88;;;22.35;95.31
65800;BME280;52544;48.116;11.660;2023-07-20T09:19:38;95541.28;;;22.32;95.63
65800;BME280;52544;48.116;11.660;2023-07-20T09:22:05;95538.38;;;22.27;86.12
65800;BME280;52544;48.116;11.660;2023-07-20T09:24:31;95525.53;;;22.23;87.54
65800;BME280;52544;48.116;11.660;2023-07-20T09:27:01;95528.84;;;22.25;90.94
65800;BME280;52544;48.116;11.660;2023-07-20T09:29:29;95531.94;;;22.21;90.73
65800;BME280;52544;48.116;11.660;2023-07-20T09:31:59;95522.22;;;22.27;89.20
65800;BME280;52544;48.116;11.660;2023-07-20T09:34:26;95528.44;;;22.34;80.95
65800;BME280;52544;48.116;11.660;2023-07-20T09:36:53;95523.47;;;22.38;87.27
65800;BME280;52544;48.116;11.660;2023-07-20T09:39:20;95525.97;;;22.39;76.67
65800;BME280;52544;48.116;11.660;2023-07-20T09:41:45;95535.50;;;22.35;87.50
65800;BME280;52544;48.116;11.660;2023-07-20T09:44:11;95531.13;;;22.34;76.79
65800;BME280;52544;48.116;11.660;2023-07-20T09:46:49;95523.03;;;22.28;68.40
65800;BME280;52544;48.116;11.660;2023-07-20T09:49:16;95526.13;;;22.25;76.06
65800;BME280;52544;48.116;11.660;2023-07-20T09:51:42;95528.84;;;22.25;91.51
65800;BME280;52544;48.116;11.660;2023-07-20T09:54:10;95529.88;;;22.24;79.80
65800;BME280;52544;48.116;11.660;2023-07-20T09:56:36;95519.69;;;22.26;93.24
65800;BME280;52544;48.116;11.660;2023-07-20T09:59:04;95529.25;;;22.28;82.61
65800;BME280;52544;48.116;11.660;2023-07-20T10:01:29;95530.94;;;22.36;91.09
65800;BME280;52544;48.116;11.660;2023-07-20T10:03:58;95514.75;;;22.49;89.67
65800;BME280;52544;48.116;11.660;2023-07-20T10:08:52;95519.75;;;22.65;83.67
65800;BME280;52544;48.116;11.660;2023-07-20T10:11:21;95522.44;;;22.65;75.60
65800;BME280;52544;48.116;11.660;2023-07-20T10:13:51;95520.34;;;22.67;90.00
65800;BME280;52544;48.116;11.660;2023-07-20T10:16:28;95518.31;;;22.69;81.33
65800;BME280;52544;48.116;11.660;2023-07-20T10:19:07;95512.91;;;22.83;89.10
65800;BME280;52544;48.116;11.660;2023-07-20T10:21:40;95516.44;;;22.97;80.57
65800;BME280;52544;48.116;11.660;2023-07-20T10:24:07;95510.38;;;23.14;74.47
65800;BME280;52544;48.116;11.660;2023-07-20T10:26:33;95520.53;;;23.19;75.90
65800;BME280;52544;48.116;11.660;2023-07-20T10:28:59;95514.91;;;23.27;75.14
65800;BME280;52544;48.116;11.660;2023-07-20T10:31:25;95507.81;;;23.46;73.77
65800;BME280;52544;48.116;11.660;2023-07-20T10:33:52;95521.44;;;23.64;70.35
65800;BME280;52544;48.116;11.660;2023-07-20T10:36:24;95511.91;;;23.68;74.42
65800;BME280;52544;48.116;11.660;2023-07-20T10:38:55;95513.34;;;23.64;76.54
65800;BME280;52544;48.116;11.660;2023-07-20T10:41:35;95505.91;;;23.53;82.85
65800;BME280;52544;48.116;11.660;2023-07-20T10:44:06;95506.75;;;23.47;80.57
65800;BME280;52544;48.116;11.660;2023-07-20T10:49:05;95492.75;;;23.77;68.68
65800;BME280;52544;48.116;11.660;2023-07-20T10:51:39;95505.34;;;23.96;69.20
65800;BME280;52544;48.116;11.660;2023-07-20T10:56:43;95496.81;;;24.31;65.23
65800;BME280;52544;48.116;11.660;2023-07-20T11:01:50;95487.31;;;24.53;67.31
65800;BME280;52544;48.116;11.660;2023-07-20T11:04:37;95497.34;;;24.46;70.97
65800;BME280;52544;48.116;11.660;2023-07-20T11:07:03;95494.59;;;24.53;73.03
65800;BME280;52544;48.116;11.660;2023-07-20T11:09:33;95488.69;;;24.62;75.37
65800;BME280;52544;48.116;11.660;2023-07-20T11:12:09;95481.63;;;24.61;74.79
65800;BME280;52544;48.116;11.660;2023-07-20T11:14:40;95484.16;;;24.56;74.31
65800;BME280;52544;48.116;11.660;2023-07-20T11:17:15;95474.72;;;24.65;71.47
65800;BME280;52544;48.116;11.660;2023-07-20T11:19:41;95477.94;;;24.81;66.94
65800;BME280;52544;48.116;11.660;2023-07-20T11:22:07;95478.00;;;24.92;71.27
65800;BME280;52544;48.116;11.660;2023-07-20T11:24:33;95474.63;;;24.97;64.66
65800;BME280;52544;48.116;11.660;2023-07-20T11:26:59;95466.19;;;25.12;66.54
65800;BME280;52544;48.116;11.660;2023-07-20T11:29:26;95460.84;;;25.42;68.15
65800;BME280;52544;48.116;11.660;2023-07-20T11:31:51;95463.84;;;25.71;61.59
65800;BME280;52544;48.116;11.660;2023-07-20T11:34:19;95465.28;;;25.91;62.04
65800;BME280;52544;48.116;11.660;2023-07-20T11:36:46;95459.16;;;25.96;59.94
65800;BME280;52544;48.116;11.660;2023-07-20T11:39:14;95461.31;;;26.06;57.99
65800;BME280;52544;48.116;11.660;2023-07-20T11:41:45;95461.03;;;26.26;57.04
65800;BME280;52544;48.116;11.660;2023-07-20T11:44:11;95455.44;;;26.21;63.62
65800;BME280;52544;48.116;11.660;2023-07-20T11:46:41;95466.34;;;26.02;66.58
65800;BME280;52544;48.116;11.660;2023-07-20T11:49:08;95462.94;;;25.77;64.43
65800;BME280;52544;48.116;11.660;2023-07-20T11:51:34;95461.44;;;25.62;60.55
65800;BME280;52544;48.116;11.660;2023-07-20T11:54:01;95451.81;;;25.66;65.96
65800;BME280;52544;48.116;11.660;2023-07-20T11:56:27;95441.88;;;25.79;60.45
65800;BME280;52544;48.116;11.660;2023-07-20T11:58:56;95442.56;;;26.04;56.38
65800;BME280;52544;48.116;11.660;2023-07-20T12:01:25;95430.34;;;26.13;58.93
65800;BME280;52544;48.116;11.660;2023-07-20T12:03:55;95431.75;;;26.28;59.24
65800;BME280;52544;48.116;11.660;2023-07-20T12:06:23;95427.78;;;26.42;57.03
65800;BME280;52544;48.116;11.660;2023-07-20T12:08:50;95428.53;;;26.49;60.21
65800;BME280;52544;48.116;11.660;2023-07-20T12:11:33;95429.97;;;26.63;50.39
65800;BME280;52544;48.116;11.660;2023-07-20T12:13:59;95421.00;;;26.75;53.59
65800;BME280;52544;48.116;11.660;2023-07-20T12:16:29;95420.50;;;27.01;51.43
65800;BME280;52544;48.116;11.660;2023-07-20T12:19:12;95417.00;;;27.12;48.84
65800;BME280;52544;48.116;11.660;2023-07-20T12:21:39;95407.75;;;27.25;50.84
65800;BME280;52544;48.116;11.660;2023-07-20T12:24:07;95414.13;;;27.31;51.77
65800;BME280;52544;48.116;11.660;2023-07-20T12:26:34;95423.34;;;27.30;52.21
65800;BME280;52544;48.116;11.660;2023-07-20T12:29:01;95419.53;;;27.31;46.28
65800;BME280;52544;48.116;11.660;2023-07-20T12:31:27;95413.53;;;27.40;48.30
65800;BME280;52544;48.116;11.660;2023-07-20T12:33:53;95402.03;;;27.50;58.59
65800;BME280;52544;48.116;11.660;2023-07-20T12:36:23;95397.88;;;27.48;49.24
65800;BME280;52544;48.116;11.660;2023-07-20T12:38:48;95398.66;;;27.60;52.48
65800;BME280;52544;48.116;11.660;2023-07-20T12:41:14;95395.00;;;27.66;54.03
65800;BME280;52544;48.116;11.660;2023-07-20T12:43:43;95399.75;;;27.59;53.88
65800;BME280;52544;48.116;11.660;2023-07-20T12:46:10;95391.72;;;27.24;57.93
65800;BME280;52544;48.116;11.660;2023-07-20T12:48:37;95391.56;;;27.19;51.47
65800;BME280;52544;48.116;11.660;2023-07-20T12:51:05;95390.63;;;27.25;57.29
65800;BME280;52544;48.116;11.660;2023-07-20T12:53:32;95383.78;;;27.22;51.08
65800;BME280;52544;48.116;11.660;2023-07-20T12:55:58;95397.59;;;27.21;52.01